createdAt,value
2019-04-07T00:00:43.674Z,1000.34
2019-04-07T00:01:43.547Z,1000.34
2019-04-07T00:02:43.936Z,1000.34
2019-04-07T00:03:43.698Z,1000.31
2019-04-07T00:04:44.202Z,1000.37
2019-04-07T00:05:43.805Z,1000.34
2019-04-07T00:06:43.486Z,1000.37
2019-04-07T00:07:43.631Z,1000.34
2019-04-07T00:08:43.491Z,1000.35
2019-04-07T00:09:43.674Z,1000.35
2019-04-07T00:10:43.544Z,1000.38
2019-04-07T00:11:44.077Z,1000.35
2019-04-07T00:12:43.423Z,1000.35
2019-04-07T00:13:43.403Z,1000.28
2019-04-07T00:14:43.729Z,1000.28
2019-04-07T00:15:43.402Z,1000.26
2019-04-07T00:16:43.834Z,1000.29
2019-04-07T00:17:43.359Z,1000.31
2019-04-07T00:18:43.362Z,1000.34
2019-04-07T00:19:43.630Z,1000.30
2019-04-07T00:20:43.798Z,1000.28
2019-04-07T00:21:43.305Z,1000.29
2019-04-07T00:22:43.296Z,1000.30
2019-04-07T00:23:43.297Z,1000.31
2019-04-07T00:24:43.365Z,1000.33
2019-04-07T00:25:43.266Z,1000.35
2019-04-07T00:26:43.264Z,1000.31
2019-04-07T00:27:43.711Z,1000.34
2019-04-07T00:28:43.702Z,1000.34
2019-04-07T00:29:43.235Z,1000.38
2019-04-07T00:30:43.241Z,1000.33
2019-04-07T00:31:43.197Z,1000.33
2019-04-07T00:32:43.186Z,1000.31
2019-04-07T00:33:43.734Z,1000.28
2019-04-07T00:34:43.165Z,1000.27
2019-04-07T00:35:43.612Z,1000.26
2019-04-07T00:36:43.239Z,1000.30
2019-04-07T00:37:43.145Z,1000.28
2019-04-07T00:38:43.139Z,1000.31
2019-04-07T00:39:43.487Z,1000.27
2019-04-07T00:40:43.102Z,1000.25
2019-04-07T00:41:43.112Z,1000.27
2019-04-07T00:42:43.093Z,1000.23
2019-04-07T00:43:43.074Z,1000.24
2019-04-07T00:44:43.274Z,1000.27
2019-04-07T00:45:43.217Z,1000.23
2019-04-07T00:46:43.250Z,1000.25
2019-04-07T00:47:43.027Z,1000.24
2019-04-07T00:48:43.013Z,1000.27
2019-04-07T00:49:43.444Z,1000.26
2019-04-07T00:50:42.993Z,1000.28
2019-04-07T00:51:43.228Z,1000.30
2019-04-07T00:52:42.974Z,1000.33
2019-04-07T00:53:42.955Z,1000.31
2019-04-07T00:54:43.304Z,1000.35
2019-04-07T00:55:42.950Z,1000.38
2019-04-07T00:56:43.867Z,1000.32
2019-04-07T00:57:43.033Z,1000.31
2019-04-07T00:58:43.436Z,1000.35
2019-04-07T00:59:42.898Z,1000.34
2019-04-07T01:00:43.414Z,1000.32
2019-04-07T01:01:42.906Z,1000.36
2019-04-07T01:02:42.956Z,1000.34
2019-04-07T01:03:43.044Z,1000.33
2019-04-07T01:04:43.014Z,1000.32
2019-04-07T01:05:43.544Z,1000.34
2019-04-07T01:06:42.813Z,1000.30
2019-04-07T01:07:43.639Z,1000.38
2019-04-07T01:08:42.792Z,1000.39
2019-04-07T01:09:43.177Z,1000.37
2019-04-07T01:10:42.783Z,1000.40
2019-04-07T01:11:43.076Z,1000.34
2019-04-07T01:12:42.747Z,1000.36
2019-04-07T01:13:42.826Z,1000.39
2019-04-07T01:14:43.383Z,1000.34
2019-04-07T01:15:43.460Z,1000.37
2019-04-07T01:16:42.757Z,1000.46
2019-04-07T01:17:42.697Z,1000.38
2019-04-07T01:18:42.704Z,1000.38
2019-04-07T01:19:43.281Z,1000.40
2019-04-07T01:20:43.032Z,1000.40
2019-04-07T01:21:42.647Z,1000.36
2019-04-07T01:22:42.648Z,1000.41
2019-04-07T01:23:42.642Z,1000.41
2019-04-07T01:24:43.156Z,1000.42
2019-04-07T01:25:42.613Z,1000.42
2019-04-07T01:26:42.594Z,1000.40
2019-04-07T01:27:42.580Z,1000.46
2019-04-07T01:28:42.963Z,1000.41
2019-04-07T01:29:42.593Z,1000.38
2019-04-07T01:30:42.657Z,1000.40
2019-04-07T01:31:43.081Z,1000.48
2019-04-07T01:32:42.537Z,1000.40
2019-04-07T01:33:43.082Z,1000.42
2019-04-07T01:34:42.706Z,1000.42
2019-04-07T01:35:48.072Z,1000.38
2019-04-07T01:36:43.490Z,1000.43
2019-04-07T01:37:42.905Z,1000.44
2019-04-07T01:38:42.467Z,1000.41
2019-04-07T01:39:42.621Z,1000.44
2019-04-07T01:40:42.453Z,1000.44
2019-04-07T01:41:42.984Z,1000.43
2019-04-07T01:42:42.412Z,1000.44
2019-04-07T01:43:42.420Z,1000.45
2019-04-07T01:44:42.433Z,1000.43
2019-04-07T01:45:42.395Z,1000.45
2019-04-07T01:46:42.729Z,1000.42
2019-04-07T01:47:42.366Z,1000.44
2019-04-07T01:48:42.346Z,1000.40
2019-04-07T01:49:42.370Z,1000.43
2019-04-07T01:50:42.804Z,1000.44
2019-04-07T01:51:42.312Z,1000.45
2019-04-07T01:52:42.611Z,1000.44
2019-04-07T01:53:42.291Z,1000.47
2019-04-07T01:54:42.284Z,1000.45
2019-04-07T01:55:42.304Z,1000.44
2019-04-07T01:56:42.701Z,1000.45
2019-04-07T01:57:42.253Z,1000.48
2019-04-07T01:58:42.798Z,1000.44
2019-04-07T01:59:42.225Z,1000.49
2019-04-07T02:00:42.946Z,1000.48
2019-04-07T02:01:42.750Z,1000.44
2019-04-07T02:02:42.191Z,1000.49
2019-04-07T02:03:42.213Z,1000.48
2019-04-07T02:04:42.480Z,1000.44
2019-04-07T02:05:42.183Z,1000.43
2019-04-07T02:06:42.160Z,1000.50
2019-04-07T02:07:42.146Z,1000.45
2019-04-07T02:08:42.808Z,1000.40
2019-04-07T02:09:42.125Z,1000.45
2019-04-07T02:10:42.809Z,1000.41
2019-04-07T02:11:42.103Z,1000.45
2019-04-07T02:12:42.371Z,1000.42
2019-04-07T02:13:42.871Z,1000.42
2019-04-07T02:14:42.067Z,1000.47
2019-04-07T02:15:42.176Z,1000.44
2019-04-07T02:16:42.099Z,1000.45
2019-04-07T02:17:42.742Z,1000.44
2019-04-07T02:18:42.030Z,1000.45
2019-04-07T02:19:42.071Z,1000.46
2019-04-07T02:20:42.205Z,1000.45
2019-04-07T02:21:42.815Z,1000.43
2019-04-07T02:22:42.034Z,1000.45
2019-04-07T02:23:42.093Z,1000.43
2019-04-07T02:24:42.250Z,1000.45
2019-04-07T02:25:41.937Z,1000.43
2019-04-07T02:26:42.198Z,1000.43
2019-04-07T02:27:41.944Z,1000.45
2019-04-07T02:28:41.942Z,1000.46
2019-04-07T02:29:42.448Z,1000.44
2019-04-07T02:30:41.898Z,1000.39
2019-04-07T02:31:42.280Z,1000.44
2019-04-07T02:32:42.206Z,1000.48
2019-04-07T02:33:42.466Z,1000.48
2019-04-07T02:34:42.868Z,1000.47
2019-04-07T02:35:41.969Z,1000.46
2019-04-07T02:36:41.969Z,1000.42
2019-04-07T02:37:42.576Z,1000.47
2019-04-07T02:38:42.389Z,1000.46
2019-04-07T02:39:42.193Z,1000.45
2019-04-07T02:40:42.652Z,1000.46
2019-04-07T02:41:42.159Z,1000.50
2019-04-07T02:42:42.640Z,1000.54
2019-04-07T02:43:42.483Z,1000.53
2019-04-07T02:44:41.729Z,1000.48
2019-04-07T02:45:41.721Z,1000.49
2019-04-07T02:46:41.711Z,1000.50
2019-04-07T02:47:42.041Z,1000.51
2019-04-07T02:48:42.640Z,1000.50
2019-04-07T02:49:41.685Z,1000.48
2019-04-07T02:50:41.680Z,1000.52
2019-04-07T02:51:42.123Z,1000.52
2019-04-07T02:52:41.678Z,1000.57
2019-04-07T02:53:41.657Z,1000.56
2019-04-07T02:54:42.881Z,1000.55
2019-04-07T02:55:42.300Z,1000.57
2019-04-07T02:56:42.365Z,1000.58
2019-04-07T02:57:42.163Z,1000.61
2019-04-07T02:58:41.594Z,1000.58
2019-04-07T02:59:42.985Z,1000.61
2019-04-07T03:00:41.595Z,1000.62
2019-04-07T03:01:41.562Z,1000.60
2019-04-07T03:02:41.540Z,1000.69
2019-04-07T03:03:41.554Z,1000.67
2019-04-07T03:04:41.668Z,1000.64
2019-04-07T03:05:42.191Z,1000.62
2019-04-07T03:06:47.702Z,1000.62
2019-04-07T03:07:43.079Z,1000.62
2019-04-07T03:08:41.502Z,1000.69
2019-04-07T03:09:41.943Z,1000.69
2019-04-07T03:10:41.447Z,1000.67
2019-04-07T03:11:42.654Z,1000.69
2019-04-07T03:12:41.484Z,1000.68
2019-04-07T03:13:41.470Z,1000.57
2019-04-07T03:14:41.412Z,1000.63
2019-04-07T03:15:41.395Z,1000.61
2019-04-07T03:16:41.814Z,1000.63
2019-04-07T03:17:41.610Z,1000.65
2019-04-07T03:18:42.465Z,1000.65
2019-04-07T03:19:41.734Z,1000.66
2019-04-07T03:20:41.394Z,1000.66
2019-04-07T03:21:41.543Z,1000.72
2019-04-07T03:22:41.900Z,1000.73
2019-04-07T03:23:41.606Z,1000.72
2019-04-07T03:24:42.142Z,1000.72
2019-04-07T03:25:42.158Z,1000.72
2019-04-07T03:26:41.275Z,1000.73
2019-04-07T03:27:42.242Z,1000.76
2019-04-07T03:28:42.229Z,1000.76
2019-04-07T03:29:41.764Z,1000.72
2019-04-07T03:30:41.964Z,1000.75
2019-04-07T03:31:43.377Z,1000.72
2019-04-07T03:32:45.070Z,1000.75
2019-04-07T03:33:43.409Z,1000.73
2019-04-07T03:34:41.353Z,1000.79
2019-04-07T03:35:44.859Z,1000.77
2019-04-07T03:37:08.947Z,1000.78
2019-04-07T03:37:44.624Z,1000.76
2019-04-07T03:38:42.893Z,1000.75
2019-04-07T03:39:41.156Z,1000.75
2019-04-07T03:40:41.290Z,1000.74
2019-04-07T03:41:41.110Z,1000.71
2019-04-07T03:42:41.644Z,1000.75
2019-04-07T03:43:41.786Z,1000.73
2019-04-07T03:44:41.165Z,1000.70
2019-04-07T03:45:41.391Z,1000.73
2019-04-07T03:46:41.350Z,1000.70
2019-04-07T03:47:41.862Z,1000.69
2019-04-07T03:48:41.639Z,1000.72
2019-04-07T03:49:41.433Z,1000.73
2019-04-07T03:50:41.029Z,1000.73
2019-04-07T03:51:41.698Z,1000.74
2019-04-07T03:52:40.985Z,1000.71
2019-04-07T03:53:41.084Z,1000.73
2019-04-07T03:54:40.959Z,1000.71
2019-04-07T03:55:41.040Z,1000.71
2019-04-07T03:56:41.595Z,1000.73
2019-04-07T03:57:41.153Z,1000.70
2019-04-07T03:58:40.933Z,1000.71
2019-04-07T03:59:40.936Z,1000.69
2019-04-07T04:00:41.092Z,1000.76
2019-04-07T04:01:41.603Z,1000.76
2019-04-07T04:02:41.129Z,1000.71
2019-04-07T04:03:40.870Z,1000.73
2019-04-07T04:04:41.546Z,1000.77
2019-04-07T04:05:41.390Z,1000.76
2019-04-07T04:06:41.962Z,1000.73
2019-04-07T04:07:41.793Z,1000.74
2019-04-07T04:08:41.725Z,1000.75
2019-04-07T04:09:42.188Z,1000.75
2019-04-07T04:10:40.948Z,1000.78
2019-04-07T04:11:40.782Z,1000.77
2019-04-07T04:12:41.591Z,1000.76
2019-04-07T04:13:41.106Z,1000.76
2019-04-07T04:14:40.748Z,1000.73
2019-04-07T04:15:41.527Z,1000.79
2019-04-07T04:16:40.744Z,1000.73
2019-04-07T04:17:41.315Z,1000.73
2019-04-07T04:18:40.736Z,1000.69
2019-04-07T04:19:40.835Z,1000.72
2019-04-07T04:20:40.902Z,1000.70
2019-04-07T04:21:40.694Z,1000.70
2019-04-07T04:22:40.652Z,1000.71
2019-04-07T04:23:42.974Z,1000.69
2019-04-07T04:24:40.633Z,1000.65
2019-04-07T04:25:40.773Z,1000.65
2019-04-07T04:26:40.636Z,1000.70
2019-04-07T04:27:40.629Z,1000.67
2019-04-07T04:28:40.878Z,1000.70
2019-04-07T04:29:41.448Z,1000.75
2019-04-07T04:30:40.568Z,1000.73
2019-04-07T04:31:40.659Z,1000.79
2019-04-07T04:32:41.418Z,1000.76
2019-04-07T04:33:40.629Z,1000.78
2019-04-07T04:34:41.042Z,1000.73
2019-04-07T04:35:40.923Z,1000.77
2019-04-07T04:36:40.624Z,1000.83
2019-04-07T04:37:47.613Z,1000.85
2019-04-07T04:38:41.510Z,1000.83
2019-04-07T04:39:41.019Z,1000.86
2019-04-07T04:40:40.833Z,1000.81
2019-04-07T04:41:40.630Z,1000.85
2019-04-07T04:42:40.847Z,1000.83
2019-04-07T04:43:40.477Z,1000.81
2019-04-07T04:44:40.591Z,1000.82
2019-04-07T04:45:40.599Z,1000.85
2019-04-07T04:46:41.119Z,1000.86
2019-04-07T04:47:40.733Z,1000.86
2019-04-07T04:48:40.986Z,1000.85
2019-04-07T04:49:40.745Z,1000.80
2019-04-07T04:50:40.354Z,1000.84
2019-04-07T04:51:41.020Z,1000.85
2019-04-07T04:52:40.822Z,1000.87
2019-04-07T04:53:40.353Z,1000.89
2019-04-07T04:54:40.820Z,1000.84
2019-04-07T04:55:40.582Z,1000.84
2019-04-07T04:56:40.280Z,1000.83
2019-04-07T04:57:40.550Z,1000.83
2019-04-07T04:58:40.449Z,1000.86
2019-04-07T04:59:40.390Z,1000.87
2019-04-07T05:00:41.217Z,1000.94
2019-04-07T05:01:40.233Z,1000.91
2019-04-07T05:02:40.234Z,1000.88
2019-04-07T05:03:40.562Z,1000.91
2019-04-07T05:04:40.173Z,1000.85
2019-04-07T05:05:41.251Z,1000.86
2019-04-07T05:06:40.161Z,1000.84
2019-04-07T05:07:50.136Z,1000.92
2019-04-07T05:08:41.136Z,1000.88
2019-04-07T05:09:46.509Z,1000.90
2019-04-07T05:10:41.651Z,1000.88
2019-04-07T05:11:40.795Z,1000.92
2019-04-07T05:12:40.314Z,1000.91
2019-04-07T05:13:40.078Z,1000.91
2019-04-07T05:14:40.136Z,1000.90
2019-04-07T05:15:40.083Z,1000.94
2019-04-07T05:16:40.058Z,1000.94
2019-04-07T05:17:40.315Z,1001.01
2019-04-07T05:18:40.029Z,1001.00
2019-04-07T05:19:42.797Z,1000.94
2019-04-07T05:20:40.046Z,1000.96
2019-04-07T05:21:40.447Z,1001.02
2019-04-07T05:22:39.995Z,1001.04
2019-04-07T05:23:40.620Z,1001.04
2019-04-07T05:24:40.073Z,1001.01
2019-04-07T05:25:40.345Z,1001.05
2019-04-07T05:26:40.540Z,1001.02
2019-04-07T05:27:40.372Z,1001.03
2019-04-07T05:28:40.468Z,1001.04
2019-04-07T05:29:40.195Z,1001.04
2019-04-07T05:30:39.901Z,1001.07
2019-04-07T05:31:40.168Z,1001.00
2019-04-07T05:32:40.012Z,1001.03
2019-04-07T05:33:39.995Z,1001.06
2019-04-07T05:34:40.280Z,1001.06
2019-04-07T05:35:40.463Z,1001.03
2019-04-07T05:36:40.125Z,1001.11
2019-04-07T05:37:40.565Z,1001.11
2019-04-07T05:38:39.834Z,1001.14
2019-04-07T05:39:40.386Z,1001.09
2019-04-07T05:40:39.998Z,1001.11
2019-04-07T05:41:40.001Z,1001.08
2019-04-07T05:42:40.039Z,1001.09
2019-04-07T05:43:40.530Z,1001.12
2019-04-07T05:44:39.809Z,1001.11
2019-04-07T05:45:40.009Z,1001.11
2019-04-07T05:46:42.436Z,1001.14
2019-04-07T05:47:43.624Z,1001.09
2019-04-07T05:48:41.993Z,1001.12
2019-04-07T05:49:39.712Z,1001.13
2019-04-07T05:50:39.689Z,1001.11
2019-04-07T05:51:40.241Z,1001.16
2019-04-07T05:52:40.782Z,1001.17
2019-04-07T05:53:39.976Z,1001.20
2019-04-07T05:54:40.222Z,1001.22
2019-04-07T05:55:39.765Z,1001.23
2019-04-07T05:56:40.326Z,1001.18
2019-04-07T05:57:39.925Z,1001.15
2019-04-07T05:58:41.105Z,1001.24
2019-04-07T05:59:39.874Z,1001.25
2019-04-07T06:00:39.570Z,1001.25
2019-04-07T06:01:40.161Z,1001.25
2019-04-07T06:02:39.545Z,1001.27
2019-04-07T06:03:42.835Z,1001.28
2019-04-07T06:04:39.519Z,1001.32
2019-04-07T06:05:39.982Z,1001.31
2019-04-07T06:06:41.337Z,1001.30
2019-04-07T06:07:39.491Z,1001.33
2019-04-07T06:08:40.935Z,1001.34
2019-04-07T06:09:39.467Z,1001.31
2019-04-07T06:10:40.252Z,1001.31
2019-04-07T06:11:40.045Z,1001.35
2019-04-07T06:12:42.650Z,1001.38
2019-04-07T06:13:40.035Z,1001.34
2019-04-07T06:14:40.063Z,1001.30
2019-04-07T06:15:39.386Z,1001.33
2019-04-07T06:16:39.398Z,1001.37
2019-04-07T06:17:39.889Z,1001.36
2019-04-07T06:18:39.404Z,1001.36
2019-04-07T06:19:41.240Z,1001.35
2019-04-07T06:20:39.345Z,1001.38
2019-04-07T06:21:39.915Z,1001.31
2019-04-07T06:22:39.325Z,1001.35
2019-04-07T06:23:39.552Z,1001.36
2019-04-07T06:24:39.453Z,1001.39
2019-04-07T06:25:41.934Z,1001.40
2019-04-07T06:26:42.818Z,1001.36
2019-04-07T06:27:40.469Z,1001.39
2019-04-07T06:28:39.311Z,1001.35
2019-04-07T06:29:39.877Z,1001.42
2019-04-07T06:30:39.506Z,1001.43
2019-04-07T06:31:39.271Z,1001.39
2019-04-07T06:32:39.753Z,1001.48
2019-04-07T06:33:39.406Z,1001.45
2019-04-07T06:34:41.054Z,1001.44
2019-04-07T06:35:39.186Z,1001.46
2019-04-07T06:36:39.697Z,1001.47
2019-04-07T06:37:39.829Z,1001.49
2019-04-07T06:38:43.614Z,1001.49
2019-04-07T06:39:40.677Z,1001.49
2019-04-07T06:40:39.283Z,1001.51
2019-04-07T06:41:39.152Z,1001.52
2019-04-07T06:42:40.448Z,1001.51
2019-04-07T06:43:40.147Z,1001.49
2019-04-07T06:44:39.070Z,1001.42
2019-04-07T06:45:39.917Z,1001.47
2019-04-07T06:46:39.089Z,1001.50
2019-04-07T06:47:39.731Z,1001.49
2019-04-07T06:48:40.491Z,1001.39
2019-04-07T06:49:42.690Z,1001.42
2019-04-07T06:50:49.497Z,1001.55
2019-04-07T06:51:40.029Z,1001.49
2019-04-07T06:52:41.614Z,1001.46
2019-04-07T06:53:39.202Z,1001.44
2019-04-07T06:54:38.979Z,1001.41
2019-04-07T06:55:39.496Z,1001.41
2019-04-07T06:56:38.939Z,1001.41
2019-04-07T06:57:38.941Z,1001.39
2019-04-07T06:58:41.612Z,1001.43
2019-04-07T06:59:39.411Z,1001.39
2019-04-07T07:00:38.907Z,1001.40
2019-04-07T07:01:39.406Z,1001.39
2019-04-07T07:02:39.030Z,1001.47
2019-04-07T07:03:39.119Z,1001.44
2019-04-07T07:04:41.577Z,1001.47
2019-04-07T07:05:38.843Z,1001.45
2019-04-07T07:06:39.430Z,1001.45
2019-04-07T07:07:38.941Z,1001.48
2019-04-07T07:08:45.169Z,1001.39
2019-04-07T07:09:39.820Z,1001.47
2019-04-07T07:10:40.948Z,1001.45
2019-04-07T07:11:42.793Z,1001.42
2019-04-07T07:12:40.809Z,1001.53
2019-04-07T07:13:41.341Z,1001.55
2019-04-07T07:14:44.384Z,1001.62
2019-04-07T07:15:39.953Z,1001.53
2019-04-07T07:16:42.435Z,1001.59
2019-04-07T07:17:40.184Z,1001.60
2019-04-07T07:18:39.312Z,1001.63
2019-04-07T07:19:39.132Z,1001.57
2019-04-07T07:20:39.355Z,1001.61
2019-04-07T07:21:39.590Z,1001.55
2019-04-07T07:22:41.520Z,1001.63
2019-04-07T07:23:38.651Z,1001.62
2019-04-07T07:24:39.297Z,1001.66
2019-04-07T07:25:38.670Z,1001.67
2019-04-07T07:26:38.719Z,1001.61
2019-04-07T07:27:40.433Z,1001.62
2019-04-07T07:28:42.504Z,1001.65
2019-04-07T07:29:38.705Z,1001.70
2019-04-07T07:30:38.711Z,1001.75
2019-04-07T07:31:39.185Z,1001.71
2019-04-07T07:32:38.938Z,1001.70
2019-04-07T07:33:41.475Z,1001.68
2019-04-07T07:34:41.952Z,1001.70
2019-04-07T07:35:38.861Z,1001.73
2019-04-07T07:36:38.534Z,1001.75
2019-04-07T07:37:38.774Z,1001.75
2019-04-07T07:38:38.548Z,1001.77
2019-04-07T07:39:41.843Z,1001.76
2019-04-07T07:40:38.593Z,1001.76
2019-04-07T07:41:38.875Z,1001.77
2019-04-07T07:42:38.455Z,1001.73
2019-04-07T07:43:39.022Z,1001.77
2019-04-07T07:44:39.649Z,1001.78
2019-04-07T07:45:42.970Z,1001.81
2019-04-07T07:46:39.725Z,1001.84
2019-04-07T07:47:38.450Z,1001.74
2019-04-07T07:48:38.921Z,1001.72
2019-04-07T07:49:40.964Z,1001.75
2019-04-07T07:50:40.305Z,1001.76
2019-04-07T07:51:39.580Z,1001.80
2019-04-07T07:52:38.726Z,1001.77
2019-04-07T07:53:38.369Z,1001.77
2019-04-07T07:54:38.650Z,1001.80
2019-04-07T07:55:38.635Z,1001.82
2019-04-07T07:56:41.544Z,1001.82
2019-04-07T07:57:39.289Z,1001.78
2019-04-07T07:58:38.483Z,1001.80
2019-04-07T07:59:39.405Z,1001.80
2019-04-07T08:00:42.135Z,1001.80
2019-04-07T08:01:38.229Z,1001.81
2019-04-07T08:02:38.911Z,1001.84
2019-04-07T08:03:39.265Z,1001.91
2019-04-07T08:04:38.720Z,1001.82
2019-04-07T08:05:38.256Z,1001.83
2019-04-07T08:06:40.176Z,1001.82
2019-04-07T08:07:38.167Z,1001.85
2019-04-07T08:08:38.166Z,1001.86
2019-04-07T08:09:38.182Z,1001.84
2019-04-07T08:10:38.210Z,1001.88
2019-04-07T08:11:38.917Z,1001.89
2019-04-07T08:12:38.890Z,1001.86
2019-04-07T08:13:43.373Z,1001.83
2019-04-07T08:14:39.095Z,1001.86
2019-04-07T08:15:38.098Z,1001.85
2019-04-07T08:16:38.996Z,1001.85
2019-04-07T08:17:38.090Z,1001.87
2019-04-07T08:18:40.686Z,1001.88
2019-04-07T08:19:42.096Z,1001.89
2019-04-07T08:20:42.921Z,1001.87
2019-04-07T08:21:39.201Z,1001.82
2019-04-07T08:22:42.913Z,1001.84
2019-04-07T08:23:41.196Z,1001.82
2019-04-07T08:24:37.993Z,1001.84
2019-04-07T08:25:37.976Z,1001.86
2019-04-07T08:26:38.223Z,1001.80
2019-04-07T08:27:38.688Z,1001.83
2019-04-07T08:28:38.187Z,1001.94
2019-04-07T08:29:39.032Z,1001.83
2019-04-07T08:30:38.260Z,1001.89
2019-04-07T08:31:38.448Z,1001.93
2019-04-07T08:32:37.930Z,1001.86
2019-04-07T08:33:38.571Z,1001.86
2019-04-07T08:34:37.896Z,1001.89
2019-04-07T08:35:39.549Z,1001.87
2019-04-07T08:36:38.078Z,1001.87
2019-04-07T08:37:38.345Z,1001.98
2019-04-07T08:38:37.889Z,1001.91
2019-04-07T08:39:38.664Z,1001.89
2019-04-07T08:40:39.052Z,1001.88
2019-04-07T08:41:41.141Z,1001.91
2019-04-07T08:42:38.100Z,1001.98
2019-04-07T08:43:37.781Z,1001.94
2019-04-07T08:44:37.796Z,1001.88
2019-04-07T08:45:38.147Z,1001.88
2019-04-07T08:46:40.904Z,1001.98
2019-04-07T08:47:38.084Z,1001.98
2019-04-07T08:48:37.738Z,1001.89
2019-04-07T08:49:38.075Z,1001.94
2019-04-07T08:50:37.740Z,1001.96
2019-04-07T08:51:37.704Z,1001.91
2019-04-07T08:52:40.731Z,1001.92
2019-04-07T08:53:37.850Z,1001.94
2019-04-07T08:54:37.677Z,1001.93
2019-04-07T08:55:37.694Z,1001.99
2019-04-07T08:56:37.749Z,1001.95
2019-04-07T08:57:37.647Z,1001.99
2019-04-07T08:58:38.874Z,1002.02
2019-04-07T08:59:42.432Z,1001.94
2019-04-07T09:00:38.716Z,1001.93
2019-04-07T09:01:37.597Z,1002.06
2019-04-07T09:02:37.587Z,1001.93
2019-04-07T09:03:37.580Z,1001.94
2019-04-07T09:04:37.567Z,1001.97
2019-04-07T09:05:37.570Z,1001.91
2019-04-07T09:06:37.583Z,1001.93
2019-04-07T09:07:37.932Z,1001.97
2019-04-07T09:08:39.027Z,1001.94
2019-04-07T09:09:44.864Z,1001.89
2019-04-07T09:10:38.497Z,1001.93
2019-04-07T09:11:39.774Z,1001.89
2019-04-07T09:12:37.521Z,1001.95
2019-04-07T09:13:37.464Z,1001.95
2019-04-07T09:14:39.723Z,1001.99
2019-04-07T09:15:39.126Z,1001.94
2019-04-07T09:16:37.446Z,1001.96
2019-04-07T09:17:43.731Z,1001.95
2019-04-07T09:18:38.926Z,1001.97
2019-04-07T09:19:37.424Z,1001.99
2019-04-07T09:20:40.908Z,1001.94
2019-04-07T09:21:41.377Z,1001.95
2019-04-07T09:22:37.800Z,1002.04
2019-04-07T09:23:38.092Z,1002.02
2019-04-07T09:24:38.142Z,1002.01
2019-04-07T09:25:40.022Z,1002.02
2019-04-07T09:26:40.586Z,1002.05
2019-04-07T09:27:38.388Z,1002.03
2019-04-07T09:28:37.823Z,1002.02
2019-04-07T09:29:37.664Z,1002.17
2019-04-07T09:30:37.894Z,1002.08
2019-04-07T09:31:37.294Z,1002.06
2019-04-07T09:32:37.292Z,1002.02
2019-04-07T09:33:38.107Z,1002.14
2019-04-07T09:34:38.002Z,1002.07
2019-04-07T09:35:37.676Z,1002.06
2019-04-07T09:36:37.427Z,1002.07
2019-04-07T09:37:37.799Z,1002.04
2019-04-07T09:38:37.248Z,1001.98
2019-04-07T09:39:54.076Z,1002.02
2019-04-07T09:40:38.346Z,1001.93
2019-04-07T09:41:38.345Z,1001.96
2019-04-07T09:42:37.852Z,1001.93
2019-04-07T09:43:37.179Z,1002.04
2019-04-07T09:44:37.786Z,1002.07
2019-04-07T09:45:39.414Z,1002.02
2019-04-07T09:46:41.618Z,1002.01
2019-04-07T09:47:38.131Z,1001.98
2019-04-07T09:48:39.187Z,1002.14
2019-04-07T09:49:37.861Z,1002.04
2019-04-07T09:50:37.572Z,1001.93
2019-04-07T09:51:40.251Z,1002.01
2019-04-07T09:52:37.095Z,1002.07
2019-04-07T09:53:38.206Z,1002.01
2019-04-07T09:54:37.066Z,1001.96
2019-04-07T09:55:37.800Z,1002.00
2019-04-07T09:56:37.464Z,1001.93
2019-04-07T09:57:38.759Z,1001.99
2019-04-07T09:58:41.359Z,1001.94
2019-04-07T09:59:38.481Z,1001.94
2019-04-07T10:00:36.997Z,1001.91
2019-04-07T10:01:36.975Z,1001.95
2019-04-07T10:02:37.263Z,1001.96
2019-04-07T10:03:38.100Z,1001.89
2019-04-07T10:04:38.576Z,1001.88
2019-04-07T10:05:40.251Z,1001.85
2019-04-07T10:06:39.125Z,1001.95
2019-04-07T10:07:40.229Z,1001.94
2019-04-07T10:08:37.911Z,1002.01
2019-04-07T10:09:36.919Z,1001.95
2019-04-07T10:10:37.147Z,1001.90
2019-04-07T10:11:37.366Z,1002.03
2019-04-07T10:12:36.860Z,1001.97
2019-04-07T10:13:36.862Z,1001.96
2019-04-07T10:14:37.523Z,1001.91
2019-04-07T10:15:37.486Z,1001.88
2019-04-07T10:16:36.821Z,1001.88
2019-04-07T10:17:37.221Z,1001.90
2019-04-07T10:18:36.930Z,1001.88
2019-04-07T10:19:37.420Z,1001.86
2019-04-07T10:20:36.951Z,1001.86
2019-04-07T10:21:36.918Z,1001.86
2019-04-07T10:22:37.411Z,1001.90
2019-04-07T10:23:37.380Z,1001.86
2019-04-07T10:24:37.079Z,1001.90
2019-04-07T10:25:36.768Z,1001.85
2019-04-07T10:26:36.728Z,1001.87
2019-04-07T10:27:36.875Z,1001.87
2019-04-07T10:28:40.075Z,1001.91
2019-04-07T10:29:36.694Z,1001.91
2019-04-07T10:30:37.022Z,1001.86
2019-04-07T10:31:36.690Z,1001.85
2019-04-07T10:32:36.709Z,1001.89
2019-04-07T10:33:36.653Z,1001.87
2019-04-07T10:34:37.423Z,1001.88
2019-04-07T10:35:36.639Z,1001.92
2019-04-07T10:36:37.395Z,1001.90
2019-04-07T10:37:36.619Z,1001.91
2019-04-07T10:38:37.417Z,1001.97
2019-04-07T10:39:37.096Z,1001.88
2019-04-07T10:40:36.587Z,1001.91
2019-04-07T10:41:37.142Z,1001.85
2019-04-07T10:42:37.010Z,1001.85
2019-04-07T10:43:36.546Z,1001.83
2019-04-07T10:44:36.547Z,1001.79
2019-04-07T10:45:36.597Z,1001.84
2019-04-07T10:46:37.463Z,1001.90
2019-04-07T10:47:36.830Z,1001.92
2019-04-07T10:48:36.677Z,1001.84
2019-04-07T10:49:37.291Z,1001.88
2019-04-07T10:50:36.787Z,1001.82
2019-04-07T10:51:36.539Z,1001.84
2019-04-07T10:52:37.082Z,1001.82
2019-04-07T10:53:37.027Z,1001.90
2019-04-07T10:54:37.055Z,1001.84
2019-04-07T10:55:36.430Z,1001.84
2019-04-07T10:56:37.311Z,1001.80
2019-04-07T10:57:36.711Z,1001.80
2019-04-07T10:58:36.835Z,1001.79
2019-04-07T10:59:36.896Z,1001.75
2019-04-07T11:00:36.764Z,1001.79
2019-04-07T11:01:36.408Z,1001.91
2019-04-07T11:02:36.457Z,1001.80
2019-04-07T11:03:36.381Z,1001.86
2019-04-07T11:04:36.349Z,1001.91
2019-04-07T11:05:36.333Z,1001.84
2019-04-07T11:06:36.329Z,1001.85
2019-04-07T11:07:36.483Z,1001.81
2019-04-07T11:08:36.397Z,1001.84
2019-04-07T11:09:36.752Z,1001.83
2019-04-07T11:10:39.106Z,1001.81
2019-04-07T11:11:36.282Z,1001.87
2019-04-07T11:12:36.791Z,1001.86
2019-04-07T11:13:36.286Z,1001.89
2019-04-07T11:14:36.253Z,1001.93
2019-04-07T11:15:36.991Z,1001.96
2019-04-07T11:16:36.598Z,1002.00
2019-04-07T11:17:36.224Z,1001.91
2019-04-07T11:18:36.481Z,1001.96
2019-04-07T11:19:36.278Z,1001.93
2019-04-07T11:20:36.290Z,1001.98
2019-04-07T11:21:36.310Z,1001.88
2019-04-07T11:22:37.027Z,1001.99
2019-04-07T11:23:36.280Z,1001.92
2019-04-07T11:24:36.995Z,1001.90
2019-04-07T11:25:36.159Z,1002.01
2019-04-07T11:26:36.452Z,1001.91
2019-04-07T11:27:36.619Z,1001.91
2019-04-07T11:28:36.107Z,1001.93
2019-04-07T11:29:37.756Z,1001.89
2019-04-07T11:30:36.101Z,1001.88
2019-04-07T11:31:36.853Z,1001.85
2019-04-07T11:32:36.075Z,1001.84
2019-04-07T11:33:36.237Z,1001.97
2019-04-07T11:34:36.611Z,1001.93
2019-04-07T11:35:36.845Z,1001.91
2019-04-07T11:36:36.413Z,1001.88
2019-04-07T11:37:36.475Z,1001.87
2019-04-07T11:38:36.216Z,1001.87
2019-04-07T11:39:36.227Z,1001.90
2019-04-07T11:40:43.444Z,1001.85
2019-04-07T11:41:37.296Z,1001.96
2019-04-07T11:42:35.986Z,1001.89
2019-04-07T11:43:35.994Z,1001.91
2019-04-07T11:44:35.997Z,1001.92
2019-04-07T11:45:35.953Z,1001.90
2019-04-07T11:46:35.955Z,1001.88
2019-04-07T11:47:36.211Z,1001.86
2019-04-07T11:48:35.914Z,1001.93
2019-04-07T11:49:35.923Z,1001.90
2019-04-07T11:50:36.299Z,1001.92
2019-04-07T11:51:35.906Z,1001.93
2019-04-07T11:52:36.500Z,1001.89
2019-04-07T11:53:35.868Z,1001.85
2019-04-07T11:54:35.864Z,1001.83
2019-04-07T11:55:36.623Z,1001.88
2019-04-07T11:56:35.947Z,1001.93
2019-04-07T11:57:35.881Z,1001.81
2019-04-07T11:58:36.120Z,1001.86
2019-04-07T11:59:35.996Z,1001.88
2019-04-07T12:00:38.828Z,1001.91
2019-04-07T12:01:35.814Z,1001.83
2019-04-07T12:02:36.383Z,1001.84
2019-04-07T12:03:35.814Z,1001.85
2019-04-07T12:04:36.427Z,1001.86
2019-04-07T12:05:36.561Z,1001.85